DTTF

Gafsa Ksar International Airport

Gafsa, Tunisia
METAR DTTF 160500Z 17004KT 8000 SCT030 07/04 Q1025 NOSIG
Observed Flight Rules
Dec-16 @ 05:00 UTC (52 minutes ago) Marginal Visual Flight Rules
Wind Visibility Clouds
170° at 4 knots 7,998 meters
  • Scattered at 3,000' AGL
Temperatures Readings
Current 7°C / 45°F
Dewpoint 4°C / 39°F
Humidity 81%
Altimeter 30.27" Hg
Pressure 1025 hPa
Elevation 314
METAR DTTF 160500Z 17004KT 8000 SCT030 07/04 Q1025 NOSIG
Observed Flight Rules
Dec-16 @ 05:00 UTC
(52 minutes ago)
MVFR
Wind Visibility
170° at 4 knots 7,998 meters
Clouds
  • Scattered at 3,000' AGL
Temperature Dewpoint
7°C / 45°F 4°C / 39°F
Humidity Altimeter Pressure
81% 30.27" Hg 1025 hPa